createdAt,value
2017-11-16T00:00:23.286Z,10.46
2017-11-16T00:01:03.640Z,10.36
2017-11-16T00:01:44.116Z,10.24
2017-11-16T00:02:24.468Z,10.25
2017-11-16T00:03:05.101Z,10.31
2017-11-16T00:03:45.488Z,10.24
2017-11-16T00:04:25.974Z,10.22
2017-11-16T00:05:06.344Z,10.22
2017-11-16T00:05:46.781Z,10.24
2017-11-16T00:06:27.254Z,10.24
2017-11-16T00:07:07.566Z,10.32
2017-11-16T00:07:48.016Z,10.26
2017-11-16T00:08:28.505Z,10.36
2017-11-16T00:09:08.930Z,10.34
2017-11-16T00:09:49.271Z,10.28
2017-11-16T00:10:29.747Z,10.28
2017-11-16T00:11:10.056Z,10.34
2017-11-16T00:11:50.492Z,10.35
2017-11-16T00:12:30.974Z,10.36
2017-11-16T00:13:11.260Z,10.39
2017-11-16T00:13:51.718Z,10.38
2017-11-16T00:14:32.115Z,10.35
2017-11-16T00:15:12.563Z,10.34
2017-11-16T00:15:53.023Z,10.32
2017-11-16T00:16:33.393Z,10.32
2017-11-16T00:17:13.827Z,10.35
2017-11-16T00:17:54.232Z,10.34
2017-11-16T00:18:34.713Z,10.24
2017-11-16T00:19:15.103Z,10.26
2017-11-16T00:19:55.688Z,10.18
2017-11-16T00:20:36.009Z,10.13
2017-11-16T00:21:16.424Z,10.11
2017-11-16T00:21:56.782Z,10.02
2017-11-16T00:22:37.195Z,10.06
2017-11-16T00:23:17.737Z,9.96
2017-11-16T00:23:58.017Z,9.96
2017-11-16T00:24:38.495Z,10.04
2017-11-16T00:25:19.028Z,10.07
2017-11-16T00:25:59.376Z,10.02
2017-11-16T00:26:39.786Z,10.04
2017-11-16T00:27:20.374Z,9.95
2017-11-16T00:28:00.693Z,9.92
2017-11-16T00:28:41.131Z,9.96
2017-11-16T00:29:21.468Z,9.99
2017-11-16T00:30:01.852Z,9.95
2017-11-16T00:30:42.314Z,9.98
2017-11-16T00:31:22.766Z,9.89
2017-11-16T00:32:03.241Z,9.96
2017-11-16T00:32:43.724Z,9.92
2017-11-16T00:33:24.160Z,9.89
2017-11-16T00:34:07.163Z,9.96
2017-11-16T00:34:47.540Z,9.98
2017-11-16T00:35:28.047Z,9.93
2017-11-16T00:36:08.459Z,9.93
2017-11-16T00:36:48.929Z,9.85
2017-11-16T00:37:29.282Z,9.81
2017-11-16T00:38:09.692Z,9.86
2017-11-16T00:38:50.050Z,9.91
2017-11-16T00:39:30.474Z,9.74
2017-11-16T00:40:10.884Z,9.7
2017-11-16T00:40:51.283Z,9.7
2017-11-16T00:41:31.767Z,9.81
2017-11-16T00:42:12.199Z,9.75
2017-11-16T00:42:52.765Z,9.71
2017-11-16T00:43:33.081Z,9.67
2017-11-16T00:44:13.679Z,9.73
2017-11-16T00:44:53.927Z,9.68
2017-11-16T00:45:34.342Z,9.63
2017-11-16T00:46:14.743Z,9.7
2017-11-16T00:46:55.162Z,9.65
2017-11-16T00:47:35.616Z,9.58
2017-11-16T00:48:16.070Z,9.63
2017-11-16T00:48:56.555Z,9.56
2017-11-16T00:49:36.992Z,9.59
2017-11-16T00:50:17.424Z,9.6
2017-11-16T00:50:57.838Z,9.58
2017-11-16T00:51:38.228Z,9.59
2017-11-16T00:52:18.713Z,9.5
2017-11-16T00:52:59.001Z,9.56
2017-11-16T00:53:39.485Z,9.63
2017-11-16T00:54:19.852Z,9.73
2017-11-16T00:55:00.252Z,9.71
2017-11-16T00:55:40.669Z,9.68
2017-11-16T00:56:21.138Z,9.77
2017-11-16T00:57:01.525Z,9.71
2017-11-16T00:57:41.877Z,9.62
2017-11-16T00:58:22.293Z,9.6
2017-11-16T00:59:02.660Z,9.67
2017-11-16T00:59:43.246Z,9.52
2017-11-16T01:00:23.948Z,9.48
2017-11-16T01:01:04.205Z,9.41
2017-11-16T01:01:44.621Z,9.37
2017-11-16T01:02:25.043Z,9.27
2017-11-16T01:03:05.494Z,9.3
2017-11-16T01:03:45.819Z,9.34
2017-11-16T01:04:26.225Z,9.27
2017-11-16T01:05:06.781Z,9.23
2017-11-16T01:05:47.581Z,9.19
2017-11-16T01:06:28.086Z,9.19
2017-11-16T01:07:08.556Z,9.16
2017-11-16T01:07:48.871Z,9.1
2017-11-16T01:08:29.481Z,9.1
2017-11-16T01:09:09.889Z,9.16
2017-11-16T01:09:50.231Z,9.2
2017-11-16T01:10:30.669Z,9.1
2017-11-16T01:11:11.073Z,9.2
2017-11-16T01:11:51.942Z,9.13
2017-11-16T01:12:32.370Z,9.2
2017-11-16T01:13:12.720Z,9.12
2017-11-16T01:13:53.101Z,9.23
2017-11-16T01:14:33.518Z,9.22
2017-11-16T01:15:13.966Z,9.19
2017-11-16T01:15:54.324Z,9.19
2017-11-16T01:16:34.718Z,9.17
2017-11-16T01:17:15.195Z,9.19
2017-11-16T01:17:55.618Z,9.19
2017-11-16T01:18:36.005Z,9.22
2017-11-16T01:19:16.368Z,9.2
2017-11-16T01:19:56.789Z,9.23
2017-11-16T01:20:37.102Z,9.16
2017-11-16T01:21:17.570Z,9.16
2017-11-16T01:21:58.102Z,9.16
2017-11-16T01:22:38.419Z,9.1
2017-11-16T01:23:18.879Z,9.15
2017-11-16T01:23:59.318Z,9.16
2017-11-16T01:24:39.612Z,9.13
2017-11-16T01:25:20.038Z,9.22
2017-11-16T01:26:00.503Z,9.1
2017-11-16T01:26:40.807Z,9.1
2017-11-16T01:27:21.292Z,9.1
2017-11-16T01:28:01.753Z,9.04
2017-11-16T01:28:42.120Z,9.06
2017-11-16T01:29:22.601Z,9.06
2017-11-16T01:30:02.908Z,8.94
2017-11-16T01:30:43.367Z,8.94
2017-11-16T01:31:23.833Z,9.04
2017-11-16T01:32:04.238Z,9.08
2017-11-16T01:32:44.606Z,9.15
2017-11-16T01:33:25.049Z,9.03
2017-11-16T01:34:05.406Z,9.08
2017-11-16T01:34:45.847Z,9.15
2017-11-16T01:35:26.271Z,9.13
2017-11-16T01:36:06.671Z,9.13
2017-11-16T01:36:47.088Z,9.01
2017-11-16T01:37:27.537Z,9.01
2017-11-16T01:38:07.986Z,9.12
2017-11-16T01:38:48.363Z,9.06
2017-11-16T01:39:28.793Z,9.03
2017-11-16T01:40:09.313Z,9.12
2017-11-16T01:40:49.717Z,9.01
2017-11-16T01:41:30.119Z,9.03
2017-11-16T01:42:10.469Z,8.94
2017-11-16T01:42:50.975Z,9.01
2017-11-16T01:43:31.353Z,8.94
2017-11-16T01:44:11.732Z,8.89
2017-11-16T01:44:52.153Z,8.94
2017-11-16T01:45:32.518Z,8.94
2017-11-16T01:46:13.042Z,8.91
2017-11-16T01:46:53.364Z,9.01
2017-11-16T01:47:33.753Z,9.04
2017-11-16T01:48:14.355Z,9.1
2017-11-16T01:48:54.603Z,9.04
2017-11-16T01:49:34.932Z,9.04
2017-11-16T01:50:15.379Z,9.13
2017-11-16T01:50:55.797Z,9.1
2017-11-16T01:51:36.322Z,9.1
2017-11-16T01:52:16.754Z,9.12
2017-11-16T01:52:57.151Z,9.1
2017-11-16T01:53:37.628Z,9.08
2017-11-16T01:54:17.875Z,9.1
2017-11-16T01:54:58.267Z,9.08
2017-11-16T01:55:38.777Z,9.03
2017-11-16T01:56:19.214Z,8.97
2017-11-16T01:56:59.851Z,8.97
2017-11-16T01:57:40.097Z,8.94
2017-11-16T01:58:20.539Z,9.1
2017-11-16T01:59:00.952Z,9.04
2017-11-16T01:59:41.283Z,8.94
2017-11-16T02:00:21.833Z,8.89
2017-11-16T02:01:02.434Z,9.04
2017-11-16T02:01:42.875Z,8.94
2017-11-16T02:02:23.297Z,8.94
2017-11-16T02:03:03.723Z,9.01
2017-11-16T02:03:44.107Z,8.89
2017-11-16T02:04:24.572Z,8.94
2017-11-16T02:05:04.918Z,9
2017-11-16T02:05:45.332Z,8.96
2017-11-16T02:06:25.804Z,8.94
2017-11-16T02:07:06.269Z,8.98
2017-11-16T02:07:46.599Z,8.89
2017-11-16T02:08:27.152Z,8.94
2017-11-16T02:09:07.424Z,8.96
2017-11-16T02:09:47.906Z,8.94
2017-11-16T02:10:28.370Z,8.94
2017-11-16T02:11:08.624Z,9.04
2017-11-16T02:11:49.068Z,8.98
2017-11-16T02:12:29.534Z,8.89
2017-11-16T02:13:09.921Z,8.97
2017-11-16T02:13:50.320Z,9.01
2017-11-16T02:14:30.716Z,8.94
2017-11-16T02:15:11.101Z,8.91
2017-11-16T02:15:51.537Z,8.98
2017-11-16T02:16:31.882Z,8.94
2017-11-16T02:17:12.343Z,8.97
2017-11-16T02:17:52.807Z,8.97
2017-11-16T02:18:33.160Z,8.98
2017-11-16T02:19:13.598Z,8.96
2017-11-16T02:19:54.043Z,9.01
2017-11-16T02:20:34.565Z,9.03
2017-11-16T02:21:14.991Z,9.04
2017-11-16T02:21:55.364Z,8.89
2017-11-16T02:22:35.773Z,8.91
2017-11-16T02:23:16.269Z,8.88
2017-11-16T02:23:56.722Z,8.91
2017-11-16T02:24:37.220Z,8.91
2017-11-16T02:25:17.654Z,9.06
2017-11-16T02:25:58.037Z,8.98
2017-11-16T02:26:38.520Z,9.1
2017-11-16T02:27:18.929Z,9.08
2017-11-16T02:27:59.409Z,9.04
2017-11-16T02:28:39.911Z,9.03
2017-11-16T02:29:20.237Z,9.12
2017-11-16T02:30:00.590Z,9.12
2017-11-16T02:30:41.037Z,9.04
2017-11-16T02:31:21.495Z,9.04
2017-11-16T02:32:01.880Z,8.94
2017-11-16T02:32:42.336Z,8.94
2017-11-16T02:33:22.756Z,8.86
2017-11-16T02:34:03.253Z,8.88
2017-11-16T02:34:43.703Z,8.78
2017-11-16T02:35:24.194Z,8.8
2017-11-16T02:36:04.577Z,8.75
2017-11-16T02:36:45.088Z,8.79
2017-11-16T02:37:25.463Z,8.76
2017-11-16T02:38:05.900Z,8.78
2017-11-16T02:38:46.235Z,8.65
2017-11-16T02:39:26.613Z,8.76
2017-11-16T02:40:07.086Z,8.65
2017-11-16T02:40:47.362Z,8.65
2017-11-16T02:41:27.883Z,8.67
2017-11-16T02:42:08.231Z,8.65
2017-11-16T02:42:48.628Z,8.7
2017-11-16T02:43:29.111Z,8.58
2017-11-16T02:44:09.419Z,8.55
2017-11-16T02:44:49.908Z,8.67
2017-11-16T02:45:30.364Z,8.64
2017-11-16T02:46:10.650Z,8.68
2017-11-16T02:46:51.170Z,8.6
2017-11-16T02:47:31.625Z,8.55
2017-11-16T02:48:11.994Z,8.57
2017-11-16T02:48:52.369Z,8.6
2017-11-16T02:49:32.780Z,8.52
2017-11-16T02:50:13.213Z,8.55
2017-11-16T02:50:53.700Z,8.49
2017-11-16T02:51:34.045Z,8.58
2017-11-16T02:52:14.518Z,8.54
2017-11-16T02:52:54.948Z,8.49
2017-11-16T02:53:35.459Z,8.52
2017-11-16T02:54:15.912Z,8.52
2017-11-16T02:54:56.270Z,8.58
2017-11-16T02:55:36.708Z,8.55
2017-11-16T02:56:17.227Z,8.47
2017-11-16T02:56:57.607Z,8.52
2017-11-16T02:57:37.971Z,8.54
2017-11-16T02:58:18.449Z,8.6
2017-11-16T02:58:58.750Z,8.58
2017-11-16T02:59:39.236Z,8.5
2017-11-16T03:00:19.584Z,8.49
2017-11-16T03:00:59.969Z,8.55
2017-11-16T03:01:40.367Z,8.57
2017-11-16T03:02:20.849Z,8.52
2017-11-16T03:03:01.124Z,8.63
2017-11-16T03:03:41.643Z,8.52
2017-11-16T03:04:22.097Z,8.58
2017-11-16T03:05:02.556Z,8.57
2017-11-16T03:05:42.900Z,8.65
2017-11-16T03:06:23.253Z,8.61
2017-11-16T03:07:03.802Z,8.76
2017-11-16T03:07:44.236Z,8.64
2017-11-16T03:08:24.636Z,8.64
2017-11-16T03:09:05.034Z,8.67
2017-11-16T03:09:45.479Z,8.61
2017-11-16T03:10:25.955Z,8.68
2017-11-16T03:11:06.484Z,8.71
2017-11-16T03:11:46.833Z,8.76
2017-11-16T03:12:27.202Z,8.8
2017-11-16T03:13:07.709Z,8.7
2017-11-16T03:13:48.092Z,8.76
2017-11-16T03:14:28.631Z,8.8
2017-11-16T03:15:09.006Z,8.83
2017-11-16T03:15:49.424Z,8.83
2017-11-16T03:16:29.861Z,8.79
2017-11-16T03:17:10.214Z,8.85
2017-11-16T03:17:50.768Z,8.7
2017-11-16T03:18:31.112Z,8.71
2017-11-16T03:19:11.587Z,8.76
2017-11-16T03:19:51.983Z,8.71
2017-11-16T03:20:32.410Z,8.67
2017-11-16T03:21:12.939Z,8.71
2017-11-16T03:21:53.458Z,8.78
2017-11-16T03:22:33.761Z,8.78
2017-11-16T03:23:14.219Z,8.89
2017-11-16T03:23:54.627Z,8.88
2017-11-16T03:24:35.024Z,8.76
2017-11-16T03:25:15.516Z,8.8
2017-11-16T03:25:55.998Z,8.83
2017-11-16T03:26:36.313Z,8.82
2017-11-16T03:27:16.695Z,8.78
2017-11-16T03:27:57.138Z,8.76
2017-11-16T03:28:37.517Z,8.73
2017-11-16T03:29:18.016Z,8.82
2017-11-16T03:29:58.388Z,8.94
2017-11-16T03:30:38.894Z,9.1
2017-11-16T03:31:19.249Z,9.04
2017-11-16T03:31:59.652Z,9.06
2017-11-16T03:32:40.041Z,9.1
2017-11-16T03:33:20.530Z,9.15
2017-11-16T03:34:00.891Z,9.23
2017-11-16T03:34:41.479Z,9.19
2017-11-16T03:35:21.838Z,9.23
2017-11-16T03:36:02.266Z,9.15
2017-11-16T03:36:42.593Z,9.22
2017-11-16T03:37:23.020Z,9.17
2017-11-16T03:38:03.564Z,9.13
2017-11-16T03:38:43.934Z,9.17
2017-11-16T03:39:24.324Z,9.2
2017-11-16T03:40:04.790Z,9.17
2017-11-16T03:40:45.169Z,9.23
2017-11-16T03:41:25.558Z,9.19
2017-11-16T03:42:06.018Z,9.15
2017-11-16T03:42:46.496Z,9.13
2017-11-16T03:43:26.864Z,9.19
2017-11-16T03:44:07.290Z,9.16
2017-11-16T03:44:47.603Z,9.12
2017-11-16T03:45:28.111Z,9.08
2017-11-16T03:46:08.442Z,9.13
2017-11-16T03:46:48.918Z,9.06
2017-11-16T03:47:29.250Z,9.03
2017-11-16T03:48:09.635Z,9
2017-11-16T03:48:50.028Z,9.01
2017-11-16T03:49:30.431Z,8.94
2017-11-16T03:50:10.885Z,8.98
2017-11-16T03:50:51.311Z,8.94
2017-11-16T03:51:31.715Z,8.89
2017-11-16T03:52:12.277Z,8.93
2017-11-16T03:52:52.672Z,8.91
2017-11-16T03:53:33.131Z,8.89
2017-11-16T03:54:13.427Z,9
2017-11-16T03:54:53.913Z,8.79
2017-11-16T03:55:34.368Z,8.7
2017-11-16T03:56:14.699Z,8.67
2017-11-16T03:56:55.129Z,8.54
2017-11-16T03:57:35.582Z,8.49
2017-11-16T03:58:16.150Z,8.45
2017-11-16T03:58:56.578Z,8.45
2017-11-16T03:59:37.041Z,8.34
2017-11-16T04:00:17.466Z,8.5
2017-11-16T04:00:58.006Z,8.37
2017-11-16T04:01:38.255Z,8.4
2017-11-16T04:02:18.720Z,8.31
2017-11-16T04:52:14.849Z,7.54
2017-11-16T05:00:54.834Z,7.71
2017-11-16T05:10:38.405Z,7.92
2017-11-16T05:11:18.817Z,7.88
2017-11-16T05:11:59.328Z,7.92
2017-11-16T05:12:39.724Z,8.02
2017-11-16T05:13:20.113Z,8.03
2017-11-16T05:14:00.499Z,8.03
2017-11-16T05:14:40.886Z,8.04
2017-11-16T05:15:21.343Z,8.06
2017-11-16T05:16:01.806Z,8.17
2017-11-16T05:16:42.255Z,8.24
2017-11-16T05:17:22.785Z,8.28
2017-11-16T05:18:03.160Z,8.25
2017-11-16T05:18:43.588Z,8.28
2017-11-16T05:19:24.071Z,8.21
2017-11-16T05:20:04.478Z,8.13
2017-11-16T05:20:44.893Z,8.18
2017-11-16T05:21:25.268Z,8.2
2017-11-16T05:22:05.774Z,8.34
2017-11-16T05:22:46.242Z,8.25
2017-11-16T05:23:26.751Z,8.24
2017-11-16T05:24:07.137Z,8.34
2017-11-16T05:24:47.520Z,8.36
2017-11-16T05:25:27.911Z,8.32
2017-11-16T05:26:08.397Z,8.32
2017-11-16T05:26:48.796Z,8.31
2017-11-16T05:27:29.190Z,8.24
2017-11-16T05:28:09.678Z,8.34
2017-11-16T05:28:50.121Z,8.36
2017-11-16T05:29:30.440Z,8.31
2017-11-16T05:30:10.893Z,8.4
2017-11-16T05:30:51.340Z,8.31
2017-11-16T05:31:31.737Z,8.39
2017-11-16T05:32:12.195Z,8.39
2017-11-16T05:32:52.561Z,8.36
2017-11-16T05:33:33.012Z,8.36
2017-11-16T05:34:13.456Z,8.29
2017-11-16T05:34:53.962Z,8.29
2017-11-16T05:35:34.398Z,8.29
2017-11-16T05:36:14.751Z,8.29
2017-11-16T05:36:55.228Z,8.27
2017-11-16T05:37:35.614Z,8.4
2017-11-16T05:38:16.282Z,8.43
2017-11-16T05:38:56.879Z,8.43
2017-11-16T05:39:37.388Z,8.42
2017-11-16T05:40:17.869Z,8.46
2017-11-16T05:40:58.460Z,8.45
2017-11-16T05:41:39.993Z,8.36
2017-11-16T05:42:20.687Z,8.45
2017-11-16T05:43:05.395Z,8.4
2017-11-16T05:43:46.107Z,8.45
2017-11-16T05:44:26.721Z,8.39
2017-11-16T05:45:07.332Z,8.45
2017-11-16T05:45:47.905Z,8.4
2017-11-16T05:46:28.299Z,8.47
2017-11-16T05:47:08.803Z,8.52
2017-11-16T05:47:49.110Z,8.65
2017-11-16T05:48:29.571Z,8.79
2017-11-16T05:49:09.968Z,8.86
2017-11-16T05:49:50.534Z,8.86
2017-11-16T05:50:31.226Z,8.83
2017-11-16T05:51:11.544Z,8.73
2017-11-16T05:51:51.920Z,8.73
2017-11-16T05:52:32.344Z,8.73
2017-11-16T05:53:12.874Z,8.82
2017-11-16T05:53:53.257Z,8.79
2017-11-16T05:54:33.652Z,8.94
2017-11-16T05:55:14.023Z,8.78
2017-11-16T05:55:54.426Z,8.8
2017-11-16T05:56:34.883Z,8.91
2017-11-16T05:57:15.266Z,9.04
2017-11-16T05:57:55.806Z,8.91
2017-11-16T05:58:37.241Z,8.94
2017-11-16T05:59:17.338Z,9.01
2017-11-16T05:59:57.824Z,8.91
2017-11-16T06:00:38.320Z,8.89
2017-11-16T06:01:18.728Z,8.89
2017-11-16T06:01:59.186Z,8.8
2017-11-16T06:02:39.636Z,8.79
2017-11-16T06:03:20.222Z,8.85
2017-11-16T06:04:00.853Z,8.83
2017-11-16T06:04:41.381Z,8.89
2017-11-16T06:05:21.784Z,8.91
2017-11-16T06:06:02.214Z,8.93
2017-11-16T06:06:42.670Z,9.04
2017-11-16T06:07:23.137Z,9.19
2017-11-16T06:08:03.732Z,9.17
2017-11-16T06:08:44.257Z,9.2
2017-11-16T06:09:24.863Z,9.2
2017-11-16T06:10:05.208Z,9.17
2017-11-16T06:10:45.825Z,9.32
2017-11-16T06:11:26.377Z,9.45
2017-11-16T06:12:07.230Z,9.41
2017-11-16T06:12:47.571Z,9.5
2017-11-16T06:13:28.085Z,9.59
2017-11-16T06:14:08.550Z,9.65
2017-11-16T06:14:49.096Z,9.67
2017-11-16T06:15:29.453Z,9.59
2017-11-16T06:16:10.013Z,9.67
2017-11-16T06:16:50.487Z,9.74
2017-11-16T06:17:30.914Z,9.65
2017-11-16T06:18:11.666Z,9.62
2017-11-16T06:18:51.911Z,9.71
2017-11-16T06:19:32.274Z,9.68
2017-11-16T06:20:12.657Z,9.71
2017-11-16T06:20:53.118Z,9.65
2017-11-16T06:21:33.704Z,9.56
2017-11-16T06:22:14.137Z,9.53
2017-11-16T06:22:54.655Z,9.59
2017-11-16T06:23:35.053Z,9.52
2017-11-16T06:24:15.605Z,9.53
2017-11-16T06:24:56.249Z,9.42
2017-11-16T06:25:36.602Z,9.42
2017-11-16T06:26:17.103Z,9.31
2017-11-16T06:26:57.605Z,9.23
2017-11-16T06:27:38.005Z,9.31
2017-11-16T06:28:18.408Z,9.2
2017-11-16T06:28:58.905Z,9.27
2017-11-16T06:29:39.340Z,9.16
2017-11-16T06:30:19.704Z,9.1
2017-11-16T06:31:00.200Z,9.08
2017-11-16T06:31:41.407Z,9.06
2017-11-16T06:32:21.922Z,9.04
2017-11-16T06:33:02.405Z,9.12
2017-11-16T06:33:43.333Z,9.17
2017-11-16T06:34:23.868Z,9.13
2017-11-16T06:35:04.404Z,9.13
2017-11-16T06:35:44.932Z,9.04
2017-11-16T06:36:25.528Z,9.08
2017-11-16T06:37:06.088Z,9.06
2017-11-16T06:37:46.758Z,8.93
2017-11-16T06:38:29.086Z,9
2017-11-16T06:39:09.521Z,8.93
2017-11-16T06:39:50.013Z,9.16
2017-11-16T06:40:30.452Z,9.16
2017-11-16T06:41:10.961Z,9.3
2017-11-16T06:41:51.314Z,9.34
2017-11-16T06:42:31.927Z,9.31
2017-11-16T06:43:13.018Z,9.38
2017-11-16T06:43:54.337Z,9.4
2017-11-16T06:44:35.501Z,9.4
2017-11-16T06:45:15.327Z,9.42
2017-11-16T06:45:55.976Z,9.5
2017-11-16T06:46:36.493Z,9.35
2017-11-16T06:47:17.204Z,9.27
2017-11-16T06:47:58.294Z,9.35
2017-11-16T06:48:38.684Z,9.32
2017-11-16T06:49:19.196Z,9.26
2017-11-16T06:49:59.619Z,9.34
2017-11-16T06:50:40.198Z,9.32
2017-11-16T06:51:20.506Z,9.2
2017-11-16T06:52:01.210Z,9.26
2017-11-16T06:52:41.468Z,9.04
2017-11-16T06:53:21.878Z,9.15
2017-11-16T06:54:02.577Z,9.15
2017-11-16T06:54:43.085Z,9.24
2017-11-16T06:55:24.209Z,9.24
2017-11-16T06:56:04.605Z,9.3
2017-11-16T06:56:45.035Z,9.31
2017-11-16T06:57:25.611Z,9.37
2017-11-16T06:58:06.166Z,9.41
2017-11-16T06:58:46.636Z,9.48
2017-11-16T06:59:27.296Z,9.5
2017-11-16T07:00:07.814Z,9.68
2017-11-16T07:00:48.277Z,9.73
2017-11-16T07:01:29.260Z,9.78
2017-11-16T07:02:09.619Z,9.74
2017-11-16T07:02:50.146Z,9.68
2017-11-16T07:03:30.899Z,9.7
2017-11-16T07:04:11.306Z,9.67
2017-11-16T07:04:51.842Z,9.59
2017-11-16T07:05:32.290Z,9.7
2017-11-16T07:06:12.999Z,9.68
2017-11-16T07:06:53.259Z,9.63
2017-11-16T07:07:33.696Z,9.65
2017-11-16T07:08:14.238Z,9.58
2017-11-16T07:08:54.830Z,9.5
2017-11-16T07:09:35.192Z,9.41
2017-11-16T07:10:15.662Z,9.3
2017-11-16T07:10:55.947Z,9.32
2017-11-16T07:11:36.484Z,9.3
2017-11-16T07:12:16.858Z,9.32
2017-11-16T07:12:57.663Z,9.31
2017-11-16T07:13:37.961Z,9.32
2017-11-16T07:14:18.343Z,9.3
2017-11-16T07:14:58.862Z,9.32
2017-11-16T07:15:39.519Z,9.27
2017-11-16T07:16:20.358Z,9.31
2017-11-16T07:17:01.294Z,9.35
2017-11-16T07:17:42.420Z,9.37
2017-11-16T07:18:23.536Z,9.41
2017-11-16T07:19:03.421Z,9.41
2017-11-16T07:19:43.933Z,9.4
2017-11-16T07:20:24.964Z,9.48
2017-11-16T07:21:06.511Z,9.5
2017-11-16T07:21:46.467Z,9.41
2017-11-16T07:22:28.179Z,9.55
2017-11-16T07:23:08.792Z,9.53
2017-11-16T07:23:49.489Z,9.58
2017-11-16T07:24:31.170Z,9.52
2017-11-16T07:25:10.972Z,9.55
2017-11-16T07:25:51.332Z,9.56
2017-11-16T07:26:33.004Z,9.52
2017-11-16T07:27:14.387Z,9.52
2017-11-16T07:27:54.994Z,9.58
2017-11-16T07:28:35.841Z,9.62
2017-11-16T07:29:16.422Z,9.59
2017-11-16T07:29:56.959Z,9.55
2017-11-16T07:30:38.020Z,9.34
2017-11-16T07:31:18.345Z,9.32
2017-11-16T07:31:58.785Z,9.24
2017-11-16T07:32:39.441Z,9.31
2017-11-16T07:33:19.809Z,9.2
2017-11-16T07:34:00.228Z,9.15
2017-11-16T07:34:41.004Z,8.98
2017-11-16T07:35:22.055Z,8.91
2017-11-16T07:36:01.938Z,8.91
2017-11-16T07:36:42.415Z,8.94
2017-11-16T07:37:22.954Z,8.89
2017-11-16T07:38:03.689Z,8.91
2017-11-16T07:38:43.882Z,8.91
2017-11-16T07:39:24.344Z,9.08
2017-11-16T07:40:04.751Z,8.98
2017-11-16T07:40:45.287Z,9.04
2017-11-16T07:41:26.061Z,9.15
2017-11-16T07:42:06.422Z,9.16
2017-11-16T07:42:46.876Z,9.15
2017-11-16T07:43:27.460Z,9.12
2017-11-16T07:44:07.862Z,9.08
2017-11-16T07:44:48.305Z,9.06
2017-11-16T07:45:28.810Z,9.17
2017-11-16T07:46:09.312Z,9.06
2017-11-16T07:46:49.874Z,9.17
2017-11-16T07:47:30.215Z,9.13
2017-11-16T07:48:10.719Z,9.06
2017-11-16T07:48:51.245Z,9.1
2017-11-16T07:49:31.595Z,9.1
2017-11-16T07:50:12.060Z,8.94
2017-11-16T07:50:52.493Z,9.08
2017-11-16T07:51:33.544Z,9.03
2017-11-16T07:52:13.498Z,9
2017-11-16T07:55:48.655Z,8.91
2017-11-16T07:57:37.470Z,9.1
2017-11-16T07:58:20.282Z,9.06
2017-11-16T07:59:01.088Z,9.1
2017-11-16T07:59:41.653Z,8.98
2017-11-16T08:00:22.292Z,8.97
2017-11-16T08:01:02.629Z,8.94
2017-11-16T08:01:43.540Z,8.93
2017-11-16T08:02:24.348Z,8.89
2017-11-16T08:03:04.524Z,8.96
2017-11-16T08:03:45.247Z,8.96
2017-11-16T08:04:25.776Z,8.96
2017-11-16T08:05:06.243Z,8.94
2017-11-16T08:05:46.853Z,9
2017-11-16T08:06:28.201Z,8.98
2017-11-16T08:07:08.544Z,8.97
2017-11-16T08:07:49.154Z,8.88
2017-11-16T08:08:30.009Z,8.85
2017-11-16T08:09:10.149Z,8.88
2017-11-16T08:09:50.745Z,8.86
2017-11-16T08:10:31.257Z,8.91
2017-11-16T08:11:11.710Z,8.86
2017-11-16T08:11:52.240Z,8.78
2017-11-16T08:12:32.643Z,8.85
2017-11-16T08:13:13.076Z,8.78
2017-11-16T08:13:53.782Z,8.85
2017-11-16T08:14:34.270Z,8.89
2017-11-16T08:15:14.658Z,8.93
2017-11-16T08:15:55.134Z,9.1
2017-11-16T08:16:35.627Z,8.94
2017-11-16T08:17:15.975Z,8.91
2017-11-16T08:17:56.619Z,8.97
2017-11-16T08:18:37.160Z,8.98
2017-11-16T08:19:17.588Z,8.97
2017-11-16T08:19:58.069Z,8.97
2017-11-16T08:20:38.467Z,9.08
2017-11-16T08:21:19.077Z,9.2
2017-11-16T08:21:59.660Z,9.3
2017-11-16T08:22:40.256Z,9.32
2017-11-16T08:23:20.498Z,9.37
2017-11-16T08:24:01.419Z,9.37
2017-11-16T08:24:42.075Z,9.5
2017-11-16T08:25:23.715Z,9.58
2017-11-16T08:26:04.608Z,9.62
2017-11-16T08:26:48.552Z,9.6
2017-11-16T08:27:29.418Z,9.63
2017-11-16T08:28:10.722Z,9.63
2017-11-16T08:28:51.632Z,9.6
2017-11-16T08:29:32.123Z,9.65
2017-11-16T08:30:12.901Z,9.67
2017-11-16T08:30:53.448Z,9.67
2017-11-16T08:31:33.748Z,9.62
2017-11-16T08:32:14.748Z,9.6
2017-11-16T08:32:56.083Z,9.53
2017-11-16T08:33:36.642Z,9.58
2017-11-16T08:34:17.101Z,9.65
2017-11-16T08:34:57.874Z,9.52
2017-11-16T08:35:38.476Z,9.55
2017-11-16T08:36:19.039Z,9.52
2017-11-16T08:37:00.405Z,9.44
2017-11-16T08:37:42.234Z,9.52
2017-11-16T08:38:22.840Z,9.41
2017-11-16T08:39:03.596Z,9.34
2017-11-16T08:39:44.085Z,9.41
2017-11-16T08:40:24.601Z,9.42
2017-11-16T08:41:05.195Z,9.49
2017-11-16T08:41:45.702Z,9.58
2017-11-16T08:42:26.090Z,9.56
2017-11-16T08:43:07.111Z,9.6
2017-11-16T08:43:47.492Z,9.6
2017-11-16T08:44:28.066Z,9.62
2017-11-16T08:45:08.644Z,9.68
2017-11-16T08:45:49.243Z,9.75
2017-11-16T08:46:29.720Z,9.89
2017-11-16T08:47:11.071Z,9.98
2017-11-16T08:47:52.419Z,10.02
2017-11-16T08:48:33.077Z,10.04
2017-11-16T08:49:13.519Z,10.16
2017-11-16T08:49:53.870Z,10.09
2017-11-16T08:50:34.278Z,10.13
2017-11-16T08:51:14.885Z,10.14
2017-11-16T08:51:55.624Z,10.02
2017-11-16T08:52:36.101Z,10.06
2017-11-16T08:53:16.506Z,9.96
2017-11-16T08:53:57.310Z,9.99
2017-11-16T08:54:37.826Z,9.92
2017-11-16T08:55:18.562Z,9.93
2017-11-16T08:55:59.016Z,9.91
2017-11-16T08:56:39.409Z,9.85
2017-11-16T08:57:20.011Z,9.85
2017-11-16T08:58:00.404Z,9.99
2017-11-16T08:58:40.890Z,10.02
2017-11-16T08:59:21.843Z,10.02
2017-11-16T09:00:02.212Z,10.09
2017-11-16T09:00:42.686Z,10.02
2017-11-16T09:01:23.289Z,10.04
2017-11-16T09:02:03.840Z,10.1
2017-11-16T09:02:44.216Z,10.11
2017-11-16T09:03:25.141Z,10.2
2017-11-16T09:04:05.731Z,10.25
2017-11-16T09:11:02.402Z,10.22
2017-11-16T09:11:42.287Z,10.18
2017-11-16T09:12:22.669Z,10.25
2017-11-16T09:13:03.198Z,10.26
2017-11-16T09:13:43.645Z,10.2
2017-11-16T09:14:24.083Z,10.18
2017-11-16T09:15:04.526Z,10.2
2017-11-16T09:15:45.029Z,10.1
2017-11-16T09:16:25.350Z,9.95
2017-11-16T09:17:05.837Z,9.99
2017-11-16T09:17:46.175Z,9.95
2017-11-16T09:18:26.784Z,9.91
2017-11-16T09:19:07.261Z,9.78
2017-11-16T09:19:48.734Z,9.65
2017-11-16T09:20:29.292Z,9.7
2017-11-16T09:21:09.734Z,9.53
2017-11-16T09:21:51.779Z,9.63
2017-11-16T09:22:32.812Z,9.68
2017-11-16T09:23:12.860Z,9.71
2017-11-16T09:23:53.498Z,9.62
2017-11-16T09:24:35.581Z,9.71
2017-11-16T09:25:17.056Z,9.62
2017-11-16T09:25:56.499Z,9.68
2017-11-16T09:26:38.051Z,9.71
2017-11-16T09:27:19.083Z,9.85
2017-11-16T09:28:00.764Z,9.96
2017-11-16T09:28:41.455Z,10.02
2017-11-16T09:29:22.301Z,10.04
2017-11-16T09:30:03.329Z,10.04
2017-11-16T09:30:43.607Z,9.88
2017-11-16T09:31:24.142Z,10.01
2017-11-16T09:32:04.549Z,9.89
2017-11-16T09:32:45.439Z,9.8
2017-11-16T09:33:25.858Z,9.71
2017-11-16T09:34:06.388Z,9.56
2017-11-16T09:34:46.642Z,9.6
2017-11-16T09:35:32.658Z,9.65
2017-11-16T09:36:13.066Z,9.52
2017-11-16T09:36:53.716Z,9.58
2017-11-16T09:37:35.744Z,9.55
2017-11-16T09:38:16.714Z,9.49
2017-11-16T09:38:57.286Z,9.5
2017-11-16T09:39:37.812Z,9.62
2017-11-16T09:40:18.291Z,9.62
2017-11-16T09:40:58.590Z,9.63
2017-11-16T09:41:39.172Z,9.56
2017-11-16T09:42:25.590Z,9.6
2017-11-16T09:43:06.138Z,9.59
2017-11-16T09:43:46.760Z,9.68
2017-11-16T09:44:27.223Z,9.68
2017-11-16T09:45:07.676Z,9.62
2017-11-16T09:45:48.125Z,9.65
2017-11-16T09:46:28.649Z,9.63
2017-11-16T09:47:10.721Z,9.62
2017-11-16T09:47:54.914Z,9.65
2017-11-16T09:48:35.289Z,9.67
2017-11-16T09:49:15.771Z,9.85
2017-11-16T09:49:56.315Z,9.99
2017-11-16T09:50:37.307Z,10.1
2017-11-16T09:51:17.700Z,10.29
2017-11-16T09:51:58.462Z,10.34
2017-11-16T09:52:39.048Z,10.49
2017-11-16T09:53:19.756Z,10.73
2017-11-16T09:54:00.054Z,10.9
2017-11-16T09:54:40.741Z,11.11
2017-11-16T09:55:21.137Z,11.23
2017-11-16T09:56:01.709Z,11.57
2017-11-16T09:56:42.076Z,11.6
2017-11-16T09:57:24.707Z,11.82
2017-11-16T09:58:05.000Z,11.87
2017-11-16T09:58:45.581Z,11.9
2017-11-16T09:59:25.982Z,11.85
2017-11-16T10:00:06.490Z,11.94
2017-11-16T10:00:46.861Z,11.98
2017-11-16T10:01:30.501Z,11.98
2017-11-16T10:02:11.102Z,12.11
2017-11-16T10:02:51.699Z,12.3
2017-11-16T10:03:33.105Z,12.33
2017-11-16T10:48:56.180Z,13.25
2017-11-16T10:49:42.184Z,13.28
2017-11-16T10:50:22.535Z,13.38
2017-11-16T10:51:03.180Z,13.44
2017-11-16T10:51:43.851Z,13.48
2017-11-16T10:52:24.758Z,13.57
2017-11-16T10:53:06.911Z,13.73
2017-11-16T10:53:50.831Z,13.62
2017-11-16T10:54:31.896Z,13.79
2017-11-16T10:55:16.569Z,13.71
2017-11-16T10:57:12.983Z,13.93
2017-11-16T10:59:29.411Z,14.3
2017-11-16T11:10:32.549Z,13.86
2017-11-16T11:11:32.075Z,13.83
2017-11-16T11:12:30.348Z,13.88
2017-11-16T11:13:10.907Z,13.98
2017-11-16T11:13:51.358Z,14.08
2017-11-16T11:14:31.762Z,14.13
2017-11-16T11:15:12.415Z,14.13